CZMD

Muskrat Dam Airport

Muskrat Dam, Ontario, Canada
METAR CZMD 151300Z AUTO 27003KT 260V350 9SM SCT055 BKN070 OVC088 M26/M28 A2990 RMK SLP162
Observed Flight Rules
Dec-15 @ 13:00 UTC (56 minutes ago) Visual Flight Rules
Wind Visibility Clouds
270° at 3 knots 9 miles
  • Scattered at 5,500' AGL
  • Broken at 7,000' AGL
  • Overcast at 8,800' AGL
Temperatures Readings
Current -26°C / -15°F
Dewpoint -28°C / -18°F
Humidity 83%
Altimeter 29.9" Hg
Pressure 1016.2 hPa
Elevation 278
METAR CZMD 151300Z AUTO 27003KT 260V350 9SM SCT055 BKN070 OVC088 M26/M28 A2990 RMK SLP162
Observed Flight Rules
Dec-15 @ 13:00 UTC
(56 minutes ago)
VFR
Wind Visibility
270° at 3 knots 9 miles
Clouds
  • Scattered at 5,500' AGL
  • Broken at 7,000' AGL
  • Overcast at 8,800' AGL
Temperature Dewpoint
-26°C / -15°F -28°C / -18°F
Humidity Altimeter Pressure
83% 29.9" Hg 1016.2 hPa